sensor_id;sensor_type;location;lat;lon;timestamp;temperature;humidity
47546;DHT22;50104;52.002;4.688;2023-06-19T00:03:31;22.90;63.90
47546;DHT22;50104;52.002;4.688;2023-06-19T00:08:32;22.90;64.60
47546;DHT22;50104;52.002;4.688;2023-06-19T00:13:33;22.90;65.10
47546;DHT22;50104;52.002;4.688;2023-06-19T00:18:34;22.90;65.30
47546;DHT22;50104;52.002;4.688;2023-06-19T00:23:40;22.90;65.70
47546;DHT22;50104;52.002;4.688;2023-06-19T00:28:41;22.90;66.20
47546;DHT22;50104;52.002;4.688;2023-06-19T00:33:45;22.90;66.00
47546;DHT22;50104;52.002;4.688;2023-06-19T00:38:48;22.80;66.40
47546;DHT22;50104;52.002;4.688;2023-06-19T00:43:48;22.80;66.40
47546;DHT22;50104;52.002;4.688;2023-06-19T00:48:49;22.80;66.50
47546;DHT22;50104;52.002;4.688;2023-06-19T00:53:50;22.70;67.40
47546;DHT22;50104;52.002;4.688;2023-06-19T00:58:52;22.70;68.50
47546;DHT22;50104;52.002;4.688;2023-06-19T01:03:54;22.60;68.20
47546;DHT22;50104;52.002;4.688;2023-06-19T01:08:56;22.60;68.70
47546;DHT22;50104;52.002;4.688;2023-06-19T01:14:13;22.60;69.10
47546;DHT22;50104;52.002;4.688;2023-06-19T01:19:19;22.60;69.80
47546;DHT22;50104;52.002;4.688;2023-06-19T01:24:21;22.60;70.00
47546;DHT22;50104;52.002;4.688;2023-06-19T01:29:22;22.60;70.20
47546;DHT22;50104;52.002;4.688;2023-06-19T01:34:26;22.60;70.40
47546;DHT22;50104;52.002;4.688;2023-06-19T01:39:28;22.50;70.90
47546;DHT22;50104;52.002;4.688;2023-06-19T01:44:29;22.50;71.20
47546;DHT22;50104;52.002;4.688;2023-06-19T01:49:30;22.50;71.30
47546;DHT22;50104;52.002;4.688;2023-06-19T01:54:30;22.50;71.40
47546;DHT22;50104;52.002;4.688;2023-06-19T01:59:31;22.40;71.00
47546;DHT22;50104;52.002;4.688;2023-06-19T02:04:32;22.40;71.30
47546;DHT22;50104;52.002;4.688;2023-06-19T02:09:34;22.40;71.40
47546;DHT22;50104;52.002;4.688;2023-06-19T02:14:36;22.40;71.80
47546;DHT22;50104;52.002;4.688;2023-06-19T02:19:37;22.40;72.00
47546;DHT22;50104;52.002;4.688;2023-06-19T02:24:38;22.40;72.20
47546;DHT22;50104;52.002;4.688;2023-06-19T02:29:40;22.30;72.30
47546;DHT22;50104;52.002;4.688;2023-06-19T02:34:40;22.30;72.10
47546;DHT22;50104;52.002;4.688;2023-06-19T02:39:41;22.30;72.80
47546;DHT22;50104;52.002;4.688;2023-06-19T02:44:42;22.30;73.70
47546;DHT22;50104;52.002;4.688;2023-06-19T02:49:43;22.30;73.90
47546;DHT22;50104;52.002;4.688;2023-06-19T02:54:44;22.30;75.00
47546;DHT22;50104;52.002;4.688;2023-06-19T02:59:45;22.20;75.50
47546;DHT22;50104;52.002;4.688;2023-06-19T03:04:46;22.20;75.80
47546;DHT22;50104;52.002;4.688;2023-06-19T03:09:47;22.20;75.60
47546;DHT22;50104;52.002;4.688;2023-06-19T03:14:47;22.20;75.90
47546;DHT22;50104;52.002;4.688;2023-06-19T03:19:48;22.20;75.80
47546;DHT22;50104;52.002;4.688;2023-06-19T03:24:49;22.20;75.80
47546;DHT22;50104;52.002;4.688;2023-06-19T03:29:50;22.20;75.70
47546;DHT22;50104;52.002;4.688;2023-06-19T03:34:51;22.10;75.70
47546;DHT22;50104;52.002;4.688;2023-06-19T03:39:52;22.10;75.60
47546;DHT22;50104;52.002;4.688;2023-06-19T03:44:52;22.00;75.70
47546;DHT22;50104;52.002;4.688;2023-06-19T03:49:53;22.00;75.40
47546;DHT22;50104;52.002;4.688;2023-06-19T03:54:54;22.00;75.20
47546;DHT22;50104;52.002;4.688;2023-06-19T03:59:56;22.00;75.10
47546;DHT22;50104;52.002;4.688;2023-06-19T04:04:57;22.00;74.80
47546;DHT22;50104;52.002;4.688;2023-06-19T04:09:58;22.00;74.70
47546;DHT22;50104;52.002;4.688;2023-06-19T04:15:00;22.00;74.50
47546;DHT22;50104;52.002;4.688;2023-06-19T04:20:03;21.90;74.60
47546;DHT22;50104;52.002;4.688;2023-06-19T04:25:11;21.90;74.50
47546;DHT22;50104;52.002;4.688;2023-06-19T04:30:12;21.80;74.80
47546;DHT22;50104;52.002;4.688;2023-06-19T04:35:13;21.80;74.70
47546;DHT22;50104;52.002;4.688;2023-06-19T04:40:14;21.80;74.70
47546;DHT22;50104;52.002;4.688;2023-06-19T04:45:15;21.70;74.60
47546;DHT22;50104;52.002;4.688;2023-06-19T04:50:16;21.70;74.40
47546;DHT22;50104;52.002;4.688;2023-06-19T04:55:18;21.70;74.10
47546;DHT22;50104;52.002;4.688;2023-06-19T05:00:19;21.60;73.60
47546;DHT22;50104;52.002;4.688;2023-06-19T05:05:21;21.60;73.90
47546;DHT22;50104;52.002;4.688;2023-06-19T05:10:22;21.50;74.00
47546;DHT22;50104;52.002;4.688;2023-06-19T05:15:23;21.50;74.10
47546;DHT22;50104;52.002;4.688;2023-06-19T05:20:24;21.50;73.80
47546;DHT22;50104;52.002;4.688;2023-06-19T05:25:26;21.50;73.90
47546;DHT22;50104;52.002;4.688;2023-06-19T05:30:28;21.50;73.60
47546;DHT22;50104;52.002;4.688;2023-06-19T05:35:28;21.50;73.80
47546;DHT22;50104;52.002;4.688;2023-06-19T05:40:30;21.40;73.70
47546;DHT22;50104;52.002;4.688;2023-06-19T05:45:31;21.40;73.60
47546;DHT22;50104;52.002;4.688;2023-06-19T05:50:32;21.40;73.20
47546;DHT22;50104;52.002;4.688;2023-06-19T05:55:33;21.40;74.00
47546;DHT22;50104;52.002;4.688;2023-06-19T06:00:34;21.40;74.00
47546;DHT22;50104;52.002;4.688;2023-06-19T06:05:35;21.40;73.80
47546;DHT22;50104;52.002;4.688;2023-06-19T06:10:37;21.40;73.50
47546;DHT22;50104;52.002;4.688;2023-06-19T06:15:38;21.40;73.50
47546;DHT22;50104;52.002;4.688;2023-06-19T06:20:39;21.40;73.30
47546;DHT22;50104;52.002;4.688;2023-06-19T06:25:40;21.40;73.90
47546;DHT22;50104;52.002;4.688;2023-06-19T06:30:41;21.40;73.70
47546;DHT22;50104;52.002;4.688;2023-06-19T06:35:42;21.30;73.10
47546;DHT22;50104;52.002;4.688;2023-06-19T06:40:44;21.40;72.70
47546;DHT22;50104;52.002;4.688;2023-06-19T06:45:45;21.40;72.80
47546;DHT22;50104;52.002;4.688;2023-06-19T06:50:46;21.40;72.50
47546;DHT22;50104;52.002;4.688;2023-06-19T06:55:47;21.40;73.40
47546;DHT22;50104;52.002;4.688;2023-06-19T07:00:48;21.40;72.50
47546;DHT22;50104;52.002;4.688;2023-06-19T07:05:49;21.40;72.60
47546;DHT22;50104;52.002;4.688;2023-06-19T07:10:50;21.40;72.80
47546;DHT22;50104;52.002;4.688;2023-06-19T07:15:51;21.40;73.10
47546;DHT22;50104;52.002;4.688;2023-06-19T07:20:52;21.50;72.20
47546;DHT22;50104;52.002;4.688;2023-06-19T07:25:53;21.50;72.80
47546;DHT22;50104;52.002;4.688;2023-06-19T07:30:54;21.50;72.30
47546;DHT22;50104;52.002;4.688;2023-06-19T07:35:56;21.60;72.80
47546;DHT22;50104;52.002;4.688;2023-06-19T07:40:57;21.70;72.20
47546;DHT22;50104;52.002;4.688;2023-06-19T07:45:58;21.80;72.30
47546;DHT22;50104;52.002;4.688;2023-06-19T07:50:59;21.90;72.60
47546;DHT22;50104;52.002;4.688;2023-06-19T07:56:00;22.00;72.40
47546;DHT22;50104;52.002;4.688;2023-06-19T08:01:01;22.10;72.20
47546;DHT22;50104;52.002;4.688;2023-06-19T08:06:02;22.20;72.50
47546;DHT22;50104;52.002;4.688;2023-06-19T08:11:03;22.30;72.50
47546;DHT22;50104;52.002;4.688;2023-06-19T08:16:04;22.40;72.10
47546;DHT22;50104;52.002;4.688;2023-06-19T08:21:05;22.60;71.90
47546;DHT22;50104;52.002;4.688;2023-06-19T08:26:06;22.80;71.70
47546;DHT22;50104;52.002;4.688;2023-06-19T08:31:08;22.90;71.50
47546;DHT22;50104;52.002;4.688;2023-06-19T08:36:09;23.10;71.10
47546;DHT22;50104;52.002;4.688;2023-06-19T08:41:10;23.20;70.70
47546;DHT22;50104;52.002;4.688;2023-06-19T08:46:15;23.30;70.30
47546;DHT22;50104;52.002;4.688;2023-06-19T08:51:18;23.50;69.60
47546;DHT22;50104;52.002;4.688;2023-06-19T08:56:19;23.60;69.20
47546;DHT22;50104;52.002;4.688;2023-06-19T09:01:19;23.70;69.20
47546;DHT22;50104;52.002;4.688;2023-06-19T09:06:20;23.70;69.30
47546;DHT22;50104;52.002;4.688;2023-06-19T09:11:21;23.90;68.80
47546;DHT22;50104;52.002;4.688;2023-06-19T09:16:23;24.00;68.80
47546;DHT22;50104;52.002;4.688;2023-06-19T09:21:24;24.10;69.00
47546;DHT22;50104;52.002;4.688;2023-06-19T09:26:25;24.20;68.70
47546;DHT22;50104;52.002;4.688;2023-06-19T09:31:33;24.40;68.10
47546;DHT22;50104;52.002;4.688;2023-06-19T09:36:35;24.60;67.60
47546;DHT22;50104;52.002;4.688;2023-06-19T09:41:37;24.70;67.20
47546;DHT22;50104;52.002;4.688;2023-06-19T09:46:41;24.80;67.10
47546;DHT22;50104;52.002;4.688;2023-06-19T09:51:45;24.80;66.70
47546;DHT22;50104;52.002;4.688;2023-06-19T09:56:46;24.90;66.20
47546;DHT22;50104;52.002;4.688;2023-06-19T10:01:51;25.00;66.00
47546;DHT22;50104;52.002;4.688;2023-06-19T10:06:53;25.00;65.80
47546;DHT22;50104;52.002;4.688;2023-06-19T10:12:00;25.10;65.50
47546;DHT22;50104;52.002;4.688;2023-06-19T10:17:12;25.20;65.30
47546;DHT22;50104;52.002;4.688;2023-06-19T10:22:20;25.30;65.50
47546;DHT22;50104;52.002;4.688;2023-06-19T10:27:23;25.40;65.10
47546;DHT22;50104;52.002;4.688;2023-06-19T10:32:24;25.50;65.30
47546;DHT22;50104;52.002;4.688;2023-06-19T10:37:32;25.70;64.90
47546;DHT22;50104;52.002;4.688;2023-06-19T10:42:33;25.90;64.40
47546;DHT22;50104;52.002;4.688;2023-06-19T10:47:35;26.10;64.40
47546;DHT22;50104;52.002;4.688;2023-06-19T10:52:40;26.30;64.20
47546;DHT22;50104;52.002;4.688;2023-06-19T10:57:45;26.50;63.30
47546;DHT22;50104;52.002;4.688;2023-06-19T11:02:46;26.70;62.40
47546;DHT22;50104;52.002;4.688;2023-06-19T11:07:56;26.80;62.20
47546;DHT22;50104;52.002;4.688;2023-06-19T11:12:59;27.00;61.90
47546;DHT22;50104;52.002;4.688;2023-06-19T11:18:01;27.20;61.60
47546;DHT22;50104;52.002;4.688;2023-06-19T11:23:03;27.40;60.60
47546;DHT22;50104;52.002;4.688;2023-06-19T11:28:14;27.50;60.10
47546;DHT22;50104;52.002;4.688;2023-06-19T11:33:20;27.80;59.40
47546;DHT22;50104;52.002;4.688;2023-06-19T11:38:25;28.00;58.60
47546;DHT22;50104;52.002;4.688;2023-06-19T11:43:28;28.20;57.70
47546;DHT22;50104;52.002;4.688;2023-06-19T11:48:30;28.30;58.00
47546;DHT22;50104;52.002;4.688;2023-06-19T11:53:31;28.50;57.70
47546;DHT22;50104;52.002;4.688;2023-06-19T11:58:31;28.50;56.10
47546;DHT22;50104;52.002;4.688;2023-06-19T12:03:32;28.60;56.00
47546;DHT22;50104;52.002;4.688;2023-06-19T12:08:33;28.60;56.10
47546;DHT22;50104;52.002;4.688;2023-06-19T12:13:34;28.70;56.30
47546;DHT22;50104;52.002;4.688;2023-06-19T12:18:35;28.70;56.00
47546;DHT22;50104;52.002;4.688;2023-06-19T12:23:36;28.60;55.90
47546;DHT22;50104;52.002;4.688;2023-06-19T12:28:37;28.60;55.50
47546;DHT22;50104;52.002;4.688;2023-06-19T12:33:38;28.70;55.60
47546;DHT22;50104;52.002;4.688;2023-06-19T12:38:43;28.80;55.60
47546;DHT22;50104;52.002;4.688;2023-06-19T12:43:44;28.90;55.80
47546;DHT22;50104;52.002;4.688;2023-06-19T12:48:45;29.10;55.60
47546;DHT22;50104;52.002;4.688;2023-06-19T12:53:50;29.30;54.60
47546;DHT22;50104;52.002;4.688;2023-06-19T12:58:51;29.60;53.90
47546;DHT22;50104;52.002;4.688;2023-06-19T13:03:53;29.80;52.80
47546;DHT22;50104;52.002;4.688;2023-06-19T13:08:54;30.10;52.10
47546;DHT22;50104;52.002;4.688;2023-06-19T13:13:55;30.30;51.40
47546;DHT22;50104;52.002;4.688;2023-06-19T13:18:56;30.60;50.80
47546;DHT22;50104;52.002;4.688;2023-06-19T13:23:57;30.80;51.20
47546;DHT22;50104;52.002;4.688;2023-06-19T13:28:58;31.00;50.40
47546;DHT22;50104;52.002;4.688;2023-06-19T13:33:59;31.20;50.00
47546;DHT22;50104;52.002;4.688;2023-06-19T13:39:00;31.40;50.00
47546;DHT22;50104;52.002;4.688;2023-06-19T13:44:01;31.60;50.20
47546;DHT22;50104;52.002;4.688;2023-06-19T13:49:02;31.80;49.90
47546;DHT22;50104;52.002;4.688;2023-06-19T13:54:03;31.90;49.00
47546;DHT22;50104;52.002;4.688;2023-06-19T13:59:05;32.00;49.00
47546;DHT22;50104;52.002;4.688;2023-06-19T14:04:07;32.10;48.40
47546;DHT22;50104;52.002;4.688;2023-06-19T14:09:12;32.10;48.40
47546;DHT22;50104;52.002;4.688;2023-06-19T14:14:13;32.20;48.60
47546;DHT22;50104;52.002;4.688;2023-06-19T14:19:14;32.20;48.80
47546;DHT22;50104;52.002;4.688;2023-06-19T14:24:15;32.10;48.40
47546;DHT22;50104;52.002;4.688;2023-06-19T14:29:17;32.10;48.90
47546;DHT22;50104;52.002;4.688;2023-06-19T14:34:19;32.10;49.30
47546;DHT22;50104;52.002;4.688;2023-06-19T14:39:20;32.10;48.60
47546;DHT22;50104;52.002;4.688;2023-06-19T14:44:21;32.10;49.50
47546;DHT22;50104;52.002;4.688;2023-06-19T14:49:22;32.10;48.40
47546;DHT22;50104;52.002;4.688;2023-06-19T14:54:23;32.10;48.00
47546;DHT22;50104;52.002;4.688;2023-06-19T14:59:24;32.20;47.90
47546;DHT22;50104;52.002;4.688;2023-06-19T15:04:25;32.30;47.80
47546;DHT22;50104;52.002;4.688;2023-06-19T15:09:26;32.40;49.20
47546;DHT22;50104;52.002;4.688;2023-06-19T15:14:27;32.50;48.40
47546;DHT22;50104;52.002;4.688;2023-06-19T15:19:28;32.60;47.80
47546;DHT22;50104;52.002;4.688;2023-06-19T15:24:29;32.60;49.30
47546;DHT22;50104;52.002;4.688;2023-06-19T15:29:30;32.50;48.10
47546;DHT22;50104;52.002;4.688;2023-06-19T15:34:31;32.50;48.00
47546;DHT22;50104;52.002;4.688;2023-06-19T15:39:32;32.40;48.00
47546;DHT22;50104;52.002;4.688;2023-06-19T15:44:34;32.30;47.90
47546;DHT22;50104;52.002;4.688;2023-06-19T15:49:36;32.20;47.70
47546;DHT22;50104;52.002;4.688;2023-06-19T15:54:37;32.20;48.10
47546;DHT22;50104;52.002;4.688;2023-06-19T15:59:40;32.10;48.30
47546;DHT22;50104;52.002;4.688;2023-06-19T16:04:40;32.00;48.20
47546;DHT22;50104;52.002;4.688;2023-06-19T16:09:42;31.90;49.10
47546;DHT22;50104;52.002;4.688;2023-06-19T16:14:43;31.90;49.10
47546;DHT22;50104;52.002;4.688;2023-06-19T16:19:44;31.80;48.40
47546;DHT22;50104;52.002;4.688;2023-06-19T16:24:45;31.70;48.90
47546;DHT22;50104;52.002;4.688;2023-06-19T16:29:46;31.60;49.00
47546;DHT22;50104;52.002;4.688;2023-06-19T16:34:47;31.60;49.30
47546;DHT22;50104;52.002;4.688;2023-06-19T16:39:48;31.60;49.60
47546;DHT22;50104;52.002;4.688;2023-06-19T16:44:49;31.60;49.70
47546;DHT22;50104;52.002;4.688;2023-06-19T16:49:50;31.60;49.90
47546;DHT22;50104;52.002;4.688;2023-06-19T16:54:50;31.70;50.10
47546;DHT22;50104;52.002;4.688;2023-06-19T16:59:51;31.80;50.10
47546;DHT22;50104;52.002;4.688;2023-06-19T17:04:52;31.90;50.00
47546;DHT22;50104;52.002;4.688;2023-06-19T17:09:53;32.00;50.20
47546;DHT22;50104;52.002;4.688;2023-06-19T17:14:54;32.00;50.40
47546;DHT22;50104;52.002;4.688;2023-06-19T17:19:57;32.10;50.80
47546;DHT22;50104;52.002;4.688;2023-06-19T17:24:58;32.10;50.00
47546;DHT22;50104;52.002;4.688;2023-06-19T17:29:59;32.10;49.70
47546;DHT22;50104;52.002;4.688;2023-06-19T17:35:02;32.00;50.00
47546;DHT22;50104;52.002;4.688;2023-06-19T17:40:05;31.90;49.40
47546;DHT22;50104;52.002;4.688;2023-06-19T17:45:09;31.80;49.30
47546;DHT22;50104;52.002;4.688;2023-06-19T17:50:10;31.60;49.40
47546;DHT22;50104;52.002;4.688;2023-06-19T17:55:14;31.40;49.20
47546;DHT22;50104;52.002;4.688;2023-06-19T18:05:56;31.10;49.40
47546;DHT22;50104;52.002;4.688;2023-06-19T18:10:57;30.90;49.70
47546;DHT22;50104;52.002;4.688;2023-06-19T18:15:58;30.70;49.70
47546;DHT22;50104;52.002;4.688;2023-06-19T18:20:59;30.50;49.90
47546;DHT22;50104;52.002;4.688;2023-06-19T18:26:00;30.30;50.00
47546;DHT22;50104;52.002;4.688;2023-06-19T18:31:01;30.20;50.40
47546;DHT22;50104;52.002;4.688;2023-06-19T18:36:02;30.00;50.50
47546;DHT22;50104;52.002;4.688;2023-06-19T18:41:03;29.80;50.80
47546;DHT22;50104;52.002;4.688;2023-06-19T18:46:04;29.70;51.00
47546;DHT22;50104;52.002;4.688;2023-06-19T18:51:05;29.50;51.20
47546;DHT22;50104;52.002;4.688;2023-06-19T18:56:06;29.30;51.70
47546;DHT22;50104;52.002;4.688;2023-06-19T19:01:07;29.10;51.60
47546;DHT22;50104;52.002;4.688;2023-06-19T19:06:09;29.00;51.50
47546;DHT22;50104;52.002;4.688;2023-06-19T19:11:10;28.80;51.80
47546;DHT22;50104;52.002;4.688;2023-06-19T19:16:11;28.50;51.60
47546;DHT22;50104;52.002;4.688;2023-06-19T19:21:12;28.30;51.80
47546;DHT22;50104;52.002;4.688;2023-06-19T19:26:12;28.10;51.90
47546;DHT22;50104;52.002;4.688;2023-06-19T19:31:13;27.90;52.20
47546;DHT22;50104;52.002;4.688;2023-06-19T19:36:15;27.70;52.60
47546;DHT22;50104;52.002;4.688;2023-06-19T19:41:16;27.50;52.80
47546;DHT22;50104;52.002;4.688;2023-06-19T19:46:17;27.30;53.00
47546;DHT22;50104;52.002;4.688;2023-06-19T19:51:18;27.10;53.30
47546;DHT22;50104;52.002;4.688;2023-06-19T19:56:19;27.00;53.50
47546;DHT22;50104;52.002;4.688;2023-06-19T20:01:20;26.80;53.60
47546;DHT22;50104;52.002;4.688;2023-06-19T20:06:22;26.70;53.80
47546;DHT22;50104;52.002;4.688;2023-06-19T20:11:22;26.50;53.90
47546;DHT22;50104;52.002;4.688;2023-06-19T20:16:23;26.40;54.10
47546;DHT22;50104;52.002;4.688;2023-06-19T20:21:26;26.30;54.30
47546;DHT22;50104;52.002;4.688;2023-06-19T20:26:29;26.10;54.40
47546;DHT22;50104;52.002;4.688;2023-06-19T20:31:30;26.00;54.60
47546;DHT22;50104;52.002;4.688;2023-06-19T20:36:30;25.90;54.70
47546;DHT22;50104;52.002;4.688;2023-06-19T20:41:31;25.70;55.00
47546;DHT22;50104;52.002;4.688;2023-06-19T20:46:32;25.60;55.20
47546;DHT22;50104;52.002;4.688;2023-06-19T20:51:34;25.40;55.60
47546;DHT22;50104;52.002;4.688;2023-06-19T20:56:34;25.30;55.70
47546;DHT22;50104;52.002;4.688;2023-06-19T21:01:35;25.20;55.80
47546;DHT22;50104;52.002;4.688;2023-06-19T21:06:36;25.10;56.10
47546;DHT22;50104;52.002;4.688;2023-06-19T21:11:37;25.00;56.50
47546;DHT22;50104;52.002;4.688;2023-06-19T21:16:41;24.90;56.60
47546;DHT22;50104;52.002;4.688;2023-06-19T21:21:41;24.90;56.90
47546;DHT22;50104;52.002;4.688;2023-06-19T21:26:42;24.80;57.30
47546;DHT22;50104;52.002;4.688;2023-06-19T21:31:43;24.70;57.50
47546;DHT22;50104;52.002;4.688;2023-06-19T21:36:44;24.60;57.90
47546;DHT22;50104;52.002;4.688;2023-06-19T21:41:45;24.60;58.00
47546;DHT22;50104;52.002;4.688;2023-06-19T21:46:46;24.50;58.20
47546;DHT22;50104;52.002;4.688;2023-06-19T21:51:46;24.50;58.50
47546;DHT22;50104;52.002;4.688;2023-06-19T21:56:49;24.40;58.70
47546;DHT22;50104;52.002;4.688;2023-06-19T22:01:49;24.40;58.90
47546;DHT22;50104;52.002;4.688;2023-06-19T22:06:50;24.30;59.00
47546;DHT22;50104;52.002;4.688;2023-06-19T22:11:51;24.20;59.20
47546;DHT22;50104;52.002;4.688;2023-06-19T22:16:54;24.20;59.20
47546;DHT22;50104;52.002;4.688;2023-06-19T22:21:54;24.10;59.30
47546;DHT22;50104;52.002;4.688;2023-06-19T22:26:55;24.10;59.70
47546;DHT22;50104;52.002;4.688;2023-06-19T22:31:56;24.00;59.80
47546;DHT22;50104;52.002;4.688;2023-06-19T22:36:57;23.90;59.80
47546;DHT22;50104;52.002;4.688;2023-06-19T22:41:58;23.90;59.90
47546;DHT22;50104;52.002;4.688;2023-06-19T22:47:01;23.80;59.80
47546;DHT22;50104;52.002;4.688;2023-06-19T22:52:02;23.80;59.90
47546;DHT22;50104;52.002;4.688;2023-06-19T22:57:03;23.70;59.90
47546;DHT22;50104;52.002;4.688;2023-06-19T23:02:05;23.70;60.10
47546;DHT22;50104;52.002;4.688;2023-06-19T23:07:06;23.60;60.20
47546;DHT22;50104;52.002;4.688;2023-06-19T23:12:07;23.50;60.30
47546;DHT22;50104;52.002;4.688;2023-06-19T23:17:09;23.50;60.40
47546;DHT22;50104;52.002;4.688;2023-06-19T23:22:10;23.40;60.50
47546;DHT22;50104;52.002;4.688;2023-06-19T23:27:11;23.30;60.70
47546;DHT22;50104;52.002;4.688;2023-06-19T23:32:12;23.30;60.80
47546;DHT22;50104;52.002;4.688;2023-06-19T23:37:12;23.20;61.00
47546;DHT22;50104;52.002;4.688;2023-06-19T23:42:13;23.20;61.30
47546;DHT22;50104;52.002;4.688;2023-06-19T23:47:14;23.10;61.40
47546;DHT22;50104;52.002;4.688;2023-06-19T23:52:15;23.00;61.40
47546;DHT22;50104;52.002;4.688;2023-06-19T23:57:16;23.00;61.70
